Sea Cloud II — 9HUE6 — position and weather

sailwx.info

Track history (hours):
 
Tides and Currents Weather Stations Pressure Air Temp Water Temp Dewpoint Dewpoint Depression Visibility Wind Speed Wind Dir Waves Ship Positions

Sea Cloud II

Ship's website: http://www.seacloud.com/en/the-ships/sea-cloud-ii.html

Last reported at 2017-May-28 03:26 UTC. Time now 2017-May-28 08:31 UTC.
Position N 37°32' W 000°17'.

Length 117 m; draft 6 m.

Type: Passenger vessel. MMSI: 248953000.

Date/timePositionNaut miles runAvg speedWind from/ knotsBaromVisibWave heightAir tempDewpointWater temp
2017-May-28 03:26N 37°32' W 000°17'812.4
2017-May-28 02:48N 37°36' W 000°09'412.7
2017-May-28 02:29N 37°39' W 000°04'3612.5
2017-May-27 23:38N 37°59' E 000°32'1012.3
2017-May-27 22:51N 38°04' E 000°42'612.1
2017-May-27 22:22N 38°08' E 000°48'612.2
2017-May-27 21:53N 38°12' E 000°54'3012.3
2017-May-27 19:28N 38°29' E 001°25'911.6
2017-May-27 18:43N 38°34' E 001°34'511.2
2017-May-27 18:14N 38°39' E 001°38'311.3
2017-May-27 17:57N 38°42' E 001°38'511.0
2017-May-27 17:30N 38°46' E 001°35'611.1
2017-May-27 16:55N 38°51' E 001°30'4 0.6
2017-May-27 10:47N 38°54' E 001°27'1 4.6
2017-May-27 10:29N 38°54' E 001°28'2 4.7
2017-May-27 09:58N 38°54' E 001°32'2 4.5
2017-May-27 09:30N 38°54' E 001°34'2 3.8
2017-May-27 09:00N 38°55' E 001°36'2 3.8
2017-May-27 08:21N 38°57' E 001°38'2 4.8
2017-May-27 08:00N 38°58' E 001°40'2 4.9
2017-May-27 07:30N 39°00' E 001°42'2 4.7
2017-May-27 06:58N 39°02' E 001°44'2 4.1
2017-May-27 06:28N 39°04' E 001°44'3 5.5
2017-May-27 06:00N 39°07' E 001°45'3 6.2
2017-May-27 05:30N 39°10' E 001°46'4 9.0
2017-May-27 05:00N 39°14' E 001°46'711.0
2017-May-27 04:24N 39°21' E 001°47'410.9
2017-May-27 03:59N 39°25' E 001°48'511.1
2017-May-27 03:30N 39°30' E 001°49'611.0
2017-May-27 03:00N 39°36' E 001°50'510.9
2017-May-27 02:30N 39°41' E 001°51'510.8
2017-May-27 02:00N 39°46' E 001°53'510.7
2017-May-27 01:30N 39°52' E 001°54'510.8
2017-May-27 01:00N 39°57' E 001°55'510.9
2017-May-27 00:30N 40°03' E 001°56'511.1
2017-May-27 00:00N 40°08' E 001°57'611.0
2017-May-26 23:30N 40°13' E 001°58'611.1
2017-May-26 23:00N 40°19' E 001°58'511.0
2017-May-26 22:30N 40°24' E 002°01'510.9
2017-May-26 22:00N 40°29' E 002°03'510.8
2017-May-26 21:30N 40°35' E 002°04'510.8
2017-May-26 21:00N 40°40' E 002°05'510.7
2017-May-26 20:30N 40°45' E 002°06'510.9
2017-May-26 20:00N 40°51' E 002°08'611.2
2017-May-26 19:30N 40°56' E 002°09'611.2
2017-May-26 19:00N 41°02' E 002°10'611.1
2017-May-26 18:30N 41°07' E 002°11'510.9
2017-May-26 18:00N 41°12' E 002°12'510.8
2017-May-26 17:30N 41°18' E 002°14'5 9.1
2017-May-26 17:00N 41°22' E 002°11'1 0.1
2017-May-26 04:01N 41°21' E 002°12'0 5.2
2017-May-26 04:00N 41°21' E 002°12'11 6.2
2017-May-26 02:13N 41°24' E 002°26'510.9
2017-May-26 01:45N 41°25' E 002°32'310.9
2017-May-26 01:30N 41°26' E 002°36'611.0
2017-May-26 01:00N 41°29' E 002°42'1612.1
2017-May-25 23:42N 41°38' E 002°60'212.0
2017-May-25 23:30N 41°39' E 003°02'3611.0
2017-May-25 20:15N 42°11' E 003°25'512.1
2017-May-25 19:50N 42°16' E 003°25'411.9
2017-May-25 19:30N 42°20' E 003°26'611.9
2017-May-25 19:00N 42°25' E 003°27'5 8.9
2017-May-25 18:30N 42°30' E 003°25'1110.6
2017-May-25 17:30N 42°32' E 003°11'56 3.1
2017-May-24 23:18N 42°49' E 004°24'7 7.7
2017-May-24 22:26N 42°50' E 004°33'1110.3
2017-May-24 21:22N 42°54' E 004°47'410.2
2017-May-24 20:59N 42°55' E 004°52'510.5
2017-May-24 20:29N 42°57' E 004°59'510.5
2017-May-24 20:00N 42°59' E 005°05'510.5
2017-May-24 19:28N 43°01' E 005°12'510.3
2017-May-24 19:00N 43°03' E 005°18'510.3
2017-May-24 18:31N 43°05' E 005°25'710.0
2017-May-24 17:50N 43°07' E 005°34'10 7.8
2017-May-24 16:32N 43°06' E 005°47'0 5.8
2017-May-24 16:30N 43°06' E 005°47'0 0.8
2017-May-24 15:57N 43°07' E 005°48'0 0.0
2017-May-24 15:30N 43°07' E 005°48'0 0.0
2017-May-24 15:00N 43°07' E 005°48'0 0.0
2017-May-24 14:21N 43°07' E 005°48'0 0.0
2017-May-24 13:24N 43°07' E 005°48'0 0.0
2017-May-24 12:54N 43°07' E 005°48'15 1.3
2017-May-24 01:53N 42°57' E 006°03'3 6.8
2017-May-24 01:30N 42°56' E 006°06'3 6.9
2017-May-24 01:00N 42°55' E 006°11'4 7.1
2017-May-24 00:30N 42°55' E 006°16'6 7.2
2017-May-23 23:36N 42°55' E 006°24'1 7.6
2017-May-23 23:29N 42°55' E 006°26'14 8.6
2017-May-23 21:48N 42°59' E 006°45'410.9
2017-May-23 21:25N 43°00' E 006°50'511.0
2017-May-23 21:00N 43°04' E 006°54'1511.1
2017-May-23 19:39N 43°15' E 007°07'211.3
2017-May-23 19:30N 43°17' E 007°09'510.9
2017-May-23 19:00N 43°21' E 007°12'611.2
2017-May-23 18:30N 43°27' E 007°12'510.9
2017-May-23 18:00N 43°33' E 007°11'3 6.4
2017-May-23 17:30N 43°35' E 007°13'3 5.6
2017-May-23 17:00N 43°37' E 007°17'3 6.4
2017-May-23 16:30N 43°38' E 007°21'2 3.7
2017-May-23 16:00N 43°39' E 007°23'2 3.7
2017-May-23 15:29N 43°39' E 007°25'2 3.7
2017-May-23 15:00N 43°40' E 007°28'2 3.8
2017-May-23 14:30N 43°41' E 007°30'5 5.2
2017-May-23 13:29N 43°43' E 007°37'4 7.2
2017-May-23 12:58N 43°44' E 007°42'7 0.8
2017-May-23 04:58N 43°47' E 007°50'24 6.9
2017-May-23 01:28N 43°31' E 008°16'3 7.2
2017-May-23 01:00N 43°29' E 008°19'10 7.1
2017-May-22 23:32N 43°22' E 008°30'0 6.9
2017-May-22 23:29N 43°22' E 008°30'710.0
2017-May-22 22:49N 43°18' E 008°38'310.3
2017-May-22 22:30N 43°16' E 008°41'510.2
2017-May-22 22:00N 43°12' E 008°46'510.1
2017-May-22 21:28N 43°09' E 008°52'610.1
2017-May-22 20:52N 43°05' E 008°58'410.3
2017-May-22 20:30N 43°03' E 009°02'610.4
2017-May-22 19:56N 42°58' E 009°08'510.7
2017-May-22 19:28N 42°55' E 009°13'5 8.1
2017-May-22 18:50N 42°50' E 009°16'3 6.9
2017-May-22 18:24N 42°48' E 009°14'3 7.2
2017-May-22 18:00N 42°47' E 009°10'3 6.8
2017-May-22 17:30N 42°47' E 009°06'4 7.3
2017-May-22 17:00N 42°44' E 009°02'4 7.2
2017-May-22 16:27N 42°41' E 008°58'3 7.4
2017-May-22 16:00N 42°40' E 008°54'4 7.4
2017-May-22 15:28N 42°39' E 008°49'4 6.9
2017-May-22 14:51N 42°35' E 008°47'1 0.1
2017-May-22 05:34N 42°34' E 008°46'0 1.5
2017-May-22 05:29N 42°34' E 008°46'2 3.2
2017-May-22 05:00N 42°35' E 008°46'4 5.5
2017-May-22 04:19N 42°37' E 008°41'2 5.5
2017-May-22 04:00N 42°36' E 008°39'3 6.1
2017-May-22 03:30N 42°34' E 008°36'6 6.3
2017-May-22 02:37N 42°30' E 008°30'8 7.1
2017-May-22 01:26N 42°22' E 008°28'610.6
2017-May-22 00:50N 42°16' E 008°27'310.5
2017-May-22 00:30N 42°12' E 008°26'1110.7
2017-May-21 23:31N 42°02' E 008°25'311.0
2017-May-21 23:14N 41°59' E 008°25'1910.8
2017-May-21 21:28N 41°40' E 008°26'710.6
2017-May-21 20:51N 41°33' E 008°29'410.4
2017-May-21 20:27N 41°29' E 008°31'510.4
2017-May-21 20:00N 41°25' E 008°34'5 9.7
2017-May-21 19:30N 41°22' E 008°39'510.3
2017-May-21 18:59N 41°21' E 008°45'510.2
2017-May-21 18:27N 41°20' E 008°52'510.2
2017-May-21 17:58N 41°19' E 008°59'5 9.7
2017-May-21 17:25N 41°22' E 009°05'2 5.4
2017-May-21 17:00N 41°23' E 009°08'0 0.1
2017-May-21 11:08N 41°23' E 009°09'0 1.0
2017-May-21 10:59N 41°23' E 009°08'2 3.1
2017-May-21 10:30N 41°22' E 009°06'2 2.7
2017-May-21 09:55N 41°22' E 009°08'1 2.2
2017-May-21 09:28N 41°21' E 009°08'1 2.3
2017-May-21 09:00N 41°20' E 009°08'1 2.7
2017-May-21 08:30N 41°18' E 009°08'2 3.3
2017-May-21 07:57N 41°18' E 009°05'2 4.3
2017-May-21 07:30N 41°19' E 009°03'2 3.9
2017-May-21 06:55N 41°19' E 008°60'2 4.3
2017-May-21 06:29N 41°18' E 008°58'3 5.3
2017-May-21 05:58N 41°16' E 008°55'13 5.9
2017-May-21 03:48N 41°18' E 009°12'2 7.6
2017-May-21 03:29N 41°17' E 009°15'3 5.6
2017-May-21 03:00N 41°19' E 009°18'3 4.9
2017-May-21 02:30N 41°21' E 009°20'2 4.8
2017-May-21 02:00N 41°22' E 009°23'3 6.4
2017-May-21 01:30N 41°22' E 009°27'2 4.7
2017-May-21 00:58N 41°20' E 009°30'2 4.1
2017-May-21 00:29N 41°19' E 009°32'2 4.1
2017-May-21 00:00N 41°18' E 009°34'2 3.9
2017-May-20 23:30N 41°17' E 009°36'3 5.4
2017-May-20 23:00N 41°15' E 009°38'4 8.7
2017-May-20 22:30N 41°11' E 009°39'4 8.5
2017-May-20 22:00N 41°07' E 009°41'5 9.2
2017-May-20 21:28N 41°02' E 009°42'4 7.5
2017-May-20 20:59N 40°58' E 009°41'5 9.9
2017-May-20 20:29N 40°55' E 009°36'3 6.2
2017-May-20 19:59N 40°55' E 009°31'0 0.0
2017-May-20 19:26N 40°55' E 009°31'0 0.0
2017-May-20 18:53N 40°55' E 009°31'0 0.0
2017-May-20 17:50N 40°55' E 009°31'0 0.0
2017-May-20 17:02N 40°55' E 009°31'0 0.0
2017-May-20 13:17N 40°55' E 009°31'0 0.0
2017-May-20 12:44N 40°55' E 009°31'0 0.0
2017-May-20 12:26N 40°55' E 009°31'0 0.0
2017-May-20 11:59N 40°55' E 009°31'0 0.0
2017-May-20 11:20N 40°55' E 009°31'0 0.0
2017-May-20 10:59N 40°55' E 009°31'0 0.0
2017-May-20 09:23N 40°55' E 009°31'0 0.0
2017-May-20 08:34N 40°55' E 009°31'0 0.1
2017-May-20 08:26N 40°55' E 009°31'0 0.0
2017-May-20 06:35N 40°55' E 009°31'0 0.0
2017-May-20 06:23N 40°55' E 009°31'0 0.0
2017-May-20 04:22N 40°55' E 009°31'1 2.9
2017-May-20 04:00N 40°55' E 009°33'3 5.8
2017-May-20 03:30N 40°56' E 009°36'1 2.2
2017-May-20 02:59N 40°57' E 009°38'2 3.9
2017-May-20 02:30N 40°57' E 009°40'2 4.9
2017-May-20 02:00N 40°58' E 009°43'3 5.2
2017-May-20 01:30N 40°59' E 009°46'3 5.5
2017-May-20 01:01N 40°59' E 009°50'4 6.9
2017-May-20 00:30N 40°56' E 009°53'3 5.2
2017-May-19 23:58N 40°54' E 009°54'4 8.7
2017-May-19 23:29N 40°50' E 009°55'5 9.4
2017-May-19 23:00N 40°45' E 009°56'5 9.8
2017-May-19 22:30N 40°40' E 009°57'4 8.4
2017-May-19 22:00N 40°36' E 009°58'3 5.6
2017-May-19 21:30N 40°33' E 009°59'3 5.3
2017-May-19 20:58N 40°31' E 010°00'3 6.0
2017-May-19 20:29N 40°29' E 010°03'5 9.5
2017-May-19 19:57N 40°26' E 010°09'510.2
2017-May-19 19:30N 40°24' E 010°14'510.0
2017-May-19 19:00N 40°21' E 010°20'510.3
2017-May-19 18:29N 40°18' E 010°25'510.5
2017-May-19 17:59N 40°14' E 010°29'510.2
2017-May-19 17:27N 40°09' E 010°33'410.1
2017-May-19 17:01N 40°06' E 010°36'7 9.9
2017-May-19 16:20N 40°00' E 010°41'3 9.6
2017-May-19 16:01N 39°58' E 010°43'6 9.3
2017-May-19 15:23N 39°53' E 010°47'3 7.9
2017-May-19 15:00N 39°50' E 010°49'2 2.1
2017-May-19 13:53N 39°52' E 010°50'0 1.0
2017-May-19 13:29N 39°52' E 010°49'0 0.9
2017-May-19 13:00N 39°53' E 010°49'0 0.5
2017-May-19 12:30N 39°52' E 010°49'1 1.4
2017-May-19 12:01N 39°52' E 010°48'1 1.6
2017-May-19 11:27N 39°51' E 010°48'1 1.8
2017-May-19 10:59N 39°50' E 010°48'1 2.1
2017-May-19 10:29N 39°49' E 010°48'2 3.1
2017-May-19 10:00N 39°48' E 010°47'2 3.4
2017-May-19 09:30N 39°46' E 010°48'2 4.8
2017-May-19 09:00N 39°44' E 010°51'3 5.9
2017-May-19 08:30N 39°42' E 010°53'3 6.3
2017-May-19 07:59N 39°40' E 010°56'3 6.9
2017-May-19 07:28N 39°37' E 010°58'3 6.2
2017-May-19 07:00N 39°34' E 011°00'10810.2
2017-May-18 20:25N 38°05' E 012°18'410.8
2017-May-18 20:00N 38°03' E 012°23'5 9.0
2017-May-18 19:30N 38°01' E 012°28'2 3.1
2017-May-18 18:50N 38°01' E 012°31'0 0.0
2017-May-18 18:20N 38°01' E 012°31'0 0.0
2017-May-18 17:50N 38°01' E 012°31'0 0.0
2017-May-18 17:20N 38°01' E 012°31'0 0.0
2017-May-18 16:53N 38°01' E 012°31'0 0.0
2017-May-18 16:23N 38°01' E 012°31'0 0.0
2017-May-18 15:53N 38°01' E 012°31'0 0.0
2017-May-18 15:23N 38°01' E 012°31'0 0.0
2017-May-18 14:53N 38°01' E 012°31'0 0.0
2017-May-18 13:53N 38°01' E 012°31'0 0.0
2017-May-18 13:26N 38°01' E 012°31'0 0.0
2017-May-18 12:56N 38°01' E 012°31'0 0.0
2017-May-18 12:23N 38°01' E 012°31'0 0.0
2017-May-18 11:56N 38°01' E 012°31'0 0.0
2017-May-18 11:26N 38°01' E 012°31'0 0.0
2017-May-18 10:59N 38°01' E 012°31'0 0.0
2017-May-18 10:29N 38°01' E 012°31'0 0.0
2017-May-18 09:59N 38°01' E 012°31'0 0.0
2017-May-18 09:29N 38°01' E 012°31'0 0.0
2017-May-18 08:56N 38°01' E 012°31'0 0.0
2017-May-18 08:29N 38°01' E 012°31'0 0.0
2017-May-18 07:59N 38°01' E 012°31'0 0.0
2017-May-18 07:29N 38°01' E 012°31'0 0.0
2017-May-18 06:47N 38°01' E 012°31'0 0.0
2017-May-18 06:29N 38°01' E 012°31'0 0.0
2017-May-18 05:59N 38°01' E 012°31'0 0.2
2017-May-18 05:30N 38°01' E 012°31'1 2.4
2017-May-18 05:00N 38°00' E 012°29'2 4.7
2017-May-18 04:30N 38°01' E 012°26'3 5.6
2017-May-18 04:00N 38°02' E 012°23'3 6.2
2017-May-18 03:30N 38°04' E 012°20'  
Track history (hours):
 
Tides and Currents Weather Stations Pressure Air Temp Water Temp Dewpoint Dewpoint Depression Visibility Wind Speed Wind Dir Waves Ship Positions

Sea Cloud II

Ship's website: http://www.seacloud.com/en/the-ships/sea-cloud-ii.html

Last reported at 2017-May-28 03:26 UTC. Time now 2017-May-28 08:31 UTC.
Position N 37°32' W 000°17'.

Length 117 m; draft 6 m.

Type: Passenger vessel. MMSI: 248953000.

Date/timePositionNaut miles runAvg speedWind from/ knotsBaromVisibWave heightAir tempDewpointWater temp
2017-May-28 03:26N 37°32' W 000°17'812.4
2017-May-28 02:48N 37°36' W 000°09'412.7
2017-May-28 02:29N 37°39' W 000°04'3612.5
2017-May-27 23:38N 37°59' E 000°32'1012.3
2017-May-27 22:51N 38°04' E 000°42'612.1
2017-May-27 22:22N 38°08' E 000°48'612.2
2017-May-27 21:53N 38°12' E 000°54'3012.3
2017-May-27 19:28N 38°29' E 001°25'911.6
2017-May-27 18:43N 38°34' E 001°34'511.2
2017-May-27 18:14N 38°39' E 001°38'311.3
2017-May-27 17:57N 38°42' E 001°38'511.0
2017-May-27 17:30N 38°46' E 001°35'611.1
2017-May-27 16:55N 38°51' E 001°30'4 0.6
2017-May-27 10:47N 38°54' E 001°27'1 4.6
2017-May-27 10:29N 38°54' E 001°28'2 4.7
2017-May-27 09:58N 38°54' E 001°32'2 4.5
2017-May-27 09:30N 38°54' E 001°34'2 3.8
2017-May-27 09:00N 38°55' E 001°36'2 3.8
2017-May-27 08:21N 38°57' E 001°38'2 4.8
2017-May-27 08:00N 38°58' E 001°40'2 4.9
2017-May-27 07:30N 39°00' E 001°42'2 4.7
2017-May-27 06:58N 39°02' E 001°44'2 4.1
2017-May-27 06:28N 39°04' E 001°44'3 5.5
2017-May-27 06:00N 39°07' E 001°45'3 6.2
2017-May-27 05:30N 39°10' E 001°46'4 9.0
2017-May-27 05:00N 39°14' E 001°46'711.0
2017-May-27 04:24N 39°21' E 001°47'410.9
2017-May-27 03:59N 39°25' E 001°48'511.1
2017-May-27 03:30N 39°30' E 001°49'611.0
2017-May-27 03:00N 39°36' E 001°50'510.9
2017-May-27 02:30N 39°41' E 001°51'510.8
2017-May-27 02:00N 39°46' E 001°53'510.7
2017-May-27 01:30N 39°52' E 001°54'510.8
2017-May-27 01:00N 39°57' E 001°55'510.9
2017-May-27 00:30N 40°03' E 001°56'511.1
2017-May-27 00:00N 40°08' E 001°57'611.0
2017-May-26 23:30N 40°13' E 001°58'611.1
2017-May-26 23:00N 40°19' E 001°58'511.0
2017-May-26 22:30N 40°24' E 002°01'510.9
2017-May-26 22:00N 40°29' E 002°03'510.8
2017-May-26 21:30N 40°35' E 002°04'510.8
2017-May-26 21:00N 40°40' E 002°05'510.7
2017-May-26 20:30N 40°45' E 002°06'510.9
2017-May-26 20:00N 40°51' E 002°08'611.2
2017-May-26 19:30N 40°56' E 002°09'611.2
2017-May-26 19:00N 41°02' E 002°10'611.1
2017-May-26 18:30N 41°07' E 002°11'510.9
2017-May-26 18:00N 41°12' E 002°12'510.8
2017-May-26 17:30N 41°18' E 002°14'5 9.1
2017-May-26 17:00N 41°22' E 002°11'1 0.1
2017-May-26 04:01N 41°21' E 002°12'0 5.2
2017-May-26 04:00N 41°21' E 002°12'11 6.2
2017-May-26 02:13N 41°24' E 002°26'510.9
2017-May-26 01:45N 41°25' E 002°32'310.9
2017-May-26 01:30N 41°26' E 002°36'611.0
2017-May-26 01:00N 41°29' E 002°42'1612.1
2017-May-25 23:42N 41°38' E 002°60'212.0
2017-May-25 23:30N 41°39' E 003°02'3611.0
2017-May-25 20:15N 42°11' E 003°25'512.1
2017-May-25 19:50N 42°16' E 003°25'411.9
2017-May-25 19:30N 42°20' E 003°26'611.9
2017-May-25 19:00N 42°25' E 003°27'5 8.9
2017-May-25 18:30N 42°30' E 003°25'1110.6
2017-May-25 17:30N 42°32' E 003°11'56 3.1
2017-May-24 23:18N 42°49' E 004°24'7 7.7
2017-May-24 22:26N 42°50' E 004°33'1110.3
2017-May-24 21:22N 42°54' E 004°47'410.2
2017-May-24 20:59N 42°55' E 004°52'510.5
2017-May-24 20:29N 42°57' E 004°59'510.5
2017-May-24 20:00N 42°59' E 005°05'510.5
2017-May-24 19:28N 43°01' E 005°12'510.3
2017-May-24 19:00N 43°03' E 005°18'510.3
2017-May-24 18:31N 43°05' E 005°25'710.0
2017-May-24 17:50N 43°07' E 005°34'10 7.8
2017-May-24 16:32N 43°06' E 005°47'0 5.8
2017-May-24 16:30N 43°06' E 005°47'0 0.8
2017-May-24 15:57N 43°07' E 005°48'0 0.0
2017-May-24 15:30N 43°07' E 005°48'0 0.0
2017-May-24 15:00N 43°07' E 005°48'0 0.0
2017-May-24 14:21N 43°07' E 005°48'0 0.0
2017-May-24 13:24N 43°07' E 005°48'0 0.0
2017-May-24 12:54N 43°07' E 005°48'15 1.3
2017-May-24 01:53N 42°57' E 006°03'3 6.8
2017-May-24 01:30N 42°56' E 006°06'3 6.9
2017-May-24 01:00N 42°55' E 006°11'4 7.1
2017-May-24 00:30N 42°55' E 006°16'6 7.2
2017-May-23 23:36N 42°55' E 006°24'1 7.6
2017-May-23 23:29N 42°55' E 006°26'14 8.6
2017-May-23 21:48N 42°59' E 006°45'410.9
2017-May-23 21:25N 43°00' E 006°50'511.0
2017-May-23 21:00N 43°04' E 006°54'1511.1
2017-May-23 19:39N 43°15' E 007°07'211.3
2017-May-23 19:30N 43°17' E 007°09'510.9
2017-May-23 19:00N 43°21' E 007°12'611.2
2017-May-23 18:30N 43°27' E 007°12'510.9
2017-May-23 18:00N 43°33' E 007°11'3 6.4
2017-May-23 17:30N 43°35' E 007°13'3 5.6
2017-May-23 17:00N 43°37' E 007°17'3 6.4
2017-May-23 16:30N 43°38' E 007°21'2 3.7
2017-May-23 16:00N 43°39' E 007°23'2 3.7
2017-May-23 15:29N 43°39' E 007°25'2 3.7
2017-May-23 15:00N 43°40' E 007°28'2 3.8
2017-May-23 14:30N 43°41' E 007°30'5 5.2
2017-May-23 13:29N 43°43' E 007°37'4 7.2
2017-May-23 12:58N 43°44' E 007°42'7 0.8
2017-May-23 04:58N 43°47' E 007°50'24 6.9
2017-May-23 01:28N 43°31' E 008°16'3 7.2
2017-May-23 01:00N 43°29' E 008°19'10 7.1
2017-May-22 23:32N 43°22' E 008°30'0 6.9
2017-May-22 23:29N 43°22' E 008°30'710.0
2017-May-22 22:49N 43°18' E 008°38'310.3
2017-May-22 22:30N 43°16' E 008°41'510.2
2017-May-22 22:00N 43°12' E 008°46'510.1
2017-May-22 21:28N 43°09' E 008°52'610.1
2017-May-22 20:52N 43°05' E 008°58'410.3
2017-May-22 20:30N 43°03' E 009°02'610.4
2017-May-22 19:56N 42°58' E 009°08'510.7
2017-May-22 19:28N 42°55' E 009°13'5 8.1
2017-May-22 18:50N 42°50' E 009°16'3 6.9
2017-May-22 18:24N 42°48' E 009°14'3 7.2
2017-May-22 18:00N 42°47' E 009°10'3 6.8
2017-May-22 17:30N 42°47' E 009°06'4 7.3
2017-May-22 17:00N 42°44' E 009°02'4 7.2
2017-May-22 16:27N 42°41' E 008°58'3 7.4
2017-May-22 16:00N 42°40' E 008°54'4 7.4
2017-May-22 15:28N 42°39' E 008°49'4 6.9
2017-May-22 14:51N 42°35' E 008°47'1 0.1
2017-May-22 05:34N 42°34' E 008°46'0 1.5
2017-May-22 05:29N 42°34' E 008°46'2 3.2
2017-May-22 05:00N 42°35' E 008°46'4 5.5
2017-May-22 04:19N 42°37' E 008°41'2 5.5
2017-May-22 04:00N 42°36' E 008°39'3 6.1
2017-May-22 03:30N 42°34' E 008°36'6 6.3
2017-May-22 02:37N 42°30' E 008°30'8 7.1
2017-May-22 01:26N 42°22' E 008°28'610.6
2017-May-22 00:50N 42°16' E 008°27'310.5
2017-May-22 00:30N 42°12' E 008°26'1110.7
2017-May-21 23:31N 42°02' E 008°25'311.0
2017-May-21 23:14N 41°59' E 008°25'1910.8
2017-May-21 21:28N 41°40' E 008°26'710.6
2017-May-21 20:51N 41°33' E 008°29'410.4
2017-May-21 20:27N 41°29' E 008°31'510.4
2017-May-21 20:00N 41°25' E 008°34'5 9.7
2017-May-21 19:30N 41°22' E 008°39'510.3
2017-May-21 18:59N 41°21' E 008°45'510.2
2017-May-21 18:27N 41°20' E 008°52'510.2
2017-May-21 17:58N 41°19' E 008°59'5 9.7
2017-May-21 17:25N 41°22' E 009°05'2 5.4
2017-May-21 17:00N 41°23' E 009°08'0 0.1
2017-May-21 11:08N 41°23' E 009°09'0 1.0
2017-May-21 10:59N 41°23' E 009°08'2 3.1
2017-May-21 10:30N 41°22' E 009°06'2 2.7
2017-May-21 09:55N 41°22' E 009°08'1 2.2
2017-May-21 09:28N 41°21' E 009°08'1 2.3
2017-May-21 09:00N 41°20' E 009°08'1 2.7
2017-May-21 08:30N 41°18' E 009°08'2 3.3
2017-May-21 07:57N 41°18' E 009°05'2 4.3
2017-May-21 07:30N 41°19' E 009°03'2 3.9
2017-May-21 06:55N 41°19' E 008°60'2 4.3
2017-May-21 06:29N 41°18' E 008°58'3 5.3
2017-May-21 05:58N 41°16' E 008°55'13 5.9
2017-May-21 03:48N 41°18' E 009°12'2 7.6
2017-May-21 03:29N 41°17' E 009°15'3 5.6
2017-May-21 03:00N 41°19' E 009°18'3 4.9
2017-May-21 02:30N 41°21' E 009°20'2 4.8
2017-May-21 02:00N 41°22' E 009°23'3 6.4
2017-May-21 01:30N 41°22' E 009°27'2 4.7
2017-May-21 00:58N 41°20' E 009°30'2 4.1
2017-May-21 00:29N 41°19' E 009°32'2 4.1
2017-May-21 00:00N 41°18' E 009°34'2 3.9
2017-May-20 23:30N 41°17' E 009°36'3 5.4
2017-May-20 23:00N 41°15' E 009°38'4 8.7
2017-May-20 22:30N 41°11' E 009°39'4 8.5
2017-May-20 22:00N 41°07' E 009°41'5 9.2
2017-May-20 21:28N 41°02' E 009°42'4 7.5
2017-May-20 20:59N 40°58' E 009°41'5 9.9
2017-May-20 20:29N 40°55' E 009°36'3 6.2
2017-May-20 19:59N 40°55' E 009°31'0 0.0
2017-May-20 19:26N 40°55' E 009°31'0 0.0
2017-May-20 18:53N 40°55' E 009°31'0 0.0
2017-May-20 17:50N 40°55' E 009°31'0 0.0
2017-May-20 17:02N 40°55' E 009°31'0 0.0
2017-May-20 13:17N 40°55' E 009°31'0 0.0
2017-May-20 12:44N 40°55' E 009°31'0 0.0
2017-May-20 12:26N 40°55' E 009°31'0 0.0
2017-May-20 11:59N 40°55' E 009°31'0 0.0
2017-May-20 11:20N 40°55' E 009°31'0 0.0
2017-May-20 10:59N 40°55' E 009°31'0 0.0
2017-May-20 09:23N 40°55' E 009°31'0 0.0
2017-May-20 08:34N 40°55' E 009°31'0 0.1
2017-May-20 08:26N 40°55' E 009°31'0 0.0
2017-May-20 06:35N 40°55' E 009°31'0 0.0
2017-May-20 06:23N 40°55' E 009°31'0 0.0
2017-May-20 04:22N 40°55' E 009°31'1 2.9
2017-May-20 04:00N 40°55' E 009°33'3 5.8
2017-May-20 03:30N 40°56' E 009°36'1 2.2
2017-May-20 02:59N 40°57' E 009°38'2 3.9
2017-May-20 02:30N 40°57' E 009°40'2 4.9
2017-May-20 02:00N 40°58' E 009°43'3 5.2
2017-May-20 01:30N 40°59' E 009°46'3 5.5
2017-May-20 01:01N 40°59' E 009°50'4 6.9
2017-May-20 00:30N 40°56' E 009°53'3 5.2
2017-May-19 23:58N 40°54' E 009°54'4 8.7
2017-May-19 23:29N 40°50' E 009°55'5 9.4
2017-May-19 23:00N 40°45' E 009°56'5 9.8
2017-May-19 22:30N 40°40' E 009°57'4 8.4
2017-May-19 22:00N 40°36' E 009°58'3 5.6
2017-May-19 21:30N 40°33' E 009°59'3 5.3
2017-May-19 20:58N 40°31' E 010°00'3 6.0
2017-May-19 20:29N 40°29' E 010°03'5 9.5
2017-May-19 19:57N 40°26' E 010°09'510.2
2017-May-19 19:30N 40°24' E 010°14'510.0
2017-May-19 19:00N 40°21' E 010°20'510.3
2017-May-19 18:29N 40°18' E 010°25'510.5
2017-May-19 17:59N 40°14' E 010°29'510.2
2017-May-19 17:27N 40°09' E 010°33'410.1
2017-May-19 17:01N 40°06' E 010°36'7 9.9
2017-May-19 16:20N 40°00' E 010°41'3 9.6
2017-May-19 16:01N 39°58' E 010°43'6 9.3
2017-May-19 15:23N 39°53' E 010°47'3 7.9
2017-May-19 15:00N 39°50' E 010°49'2 2.1
2017-May-19 13:53N 39°52' E 010°50'0 1.0
2017-May-19 13:29N 39°52' E 010°49'0 0.9
2017-May-19 13:00N 39°53' E 010°49'0 0.5
2017-May-19 12:30N 39°52' E 010°49'1 1.4
2017-May-19 12:01N 39°52' E 010°48'1 1.6
2017-May-19 11:27N 39°51' E 010°48'1 1.8
2017-May-19 10:59N 39°50' E 010°48'1 2.1
2017-May-19 10:29N 39°49' E 010°48'2 3.1
2017-May-19 10:00N 39°48' E 010°47'2 3.4
2017-May-19 09:30N 39°46' E 010°48'2 4.8
2017-May-19 09:00N 39°44' E 010°51'3 5.9
2017-May-19 08:30N 39°42' E 010°53'3 6.3
2017-May-19 07:59N 39°40' E 010°56'3 6.9
2017-May-19 07:28N 39°37' E 010°58'3 6.2
2017-May-19 07:00N 39°34' E 011°00'10810.2
2017-May-18 20:25N 38°05' E 012°18'410.8
2017-May-18 20:00N 38°03' E 012°23'5 9.0
2017-May-18 19:30N 38°01' E 012°28'2 3.1
2017-May-18 18:50N 38°01' E 012°31'0 0.0
2017-May-18 18:20N 38°01' E 012°31'0 0.0
2017-May-18 17:50N 38°01' E 012°31'0 0.0
2017-May-18 17:20N 38°01' E 012°31'0 0.0
2017-May-18 16:53N 38°01' E 012°31'0 0.0
2017-May-18 16:23N 38°01' E 012°31'0 0.0
2017-May-18 15:53N 38°01' E 012°31'0 0.0
2017-May-18 15:23N 38°01' E 012°31'0 0.0
2017-May-18 14:53N 38°01' E 012°31'0 0.0
2017-May-18 13:53N 38°01' E 012°31'0 0.0
2017-May-18 13:26N 38°01' E 012°31'0 0.0
2017-May-18 12:56N 38°01' E 012°31'0 0.0
2017-May-18 12:23N 38°01' E 012°31'0 0.0
2017-May-18 11:56N 38°01' E 012°31'0 0.0
2017-May-18 11:26N 38°01' E 012°31'0 0.0
2017-May-18 10:59N 38°01' E 012°31'0 0.0
2017-May-18 10:29N 38°01' E 012°31'0 0.0
2017-May-18 09:59N 38°01' E 012°31'0 0.0
2017-May-18 09:29N 38°01' E 012°31'0 0.0
2017-May-18 08:56N 38°01' E 012°31'0 0.0
2017-May-18 08:29N 38°01' E 012°31'0 0.0
2017-May-18 07:59N 38°01' E 012°31'0 0.0
2017-May-18 07:29N 38°01' E 012°31'0 0.0
2017-May-18 06:47N 38°01' E 012°31'0 0.0
2017-May-18 06:29N 38°01' E 012°31'0 0.0
2017-May-18 05:59N 38°01' E 012°31'0 0.2
2017-May-18 05:30N 38°01' E 012°31'1 2.4
2017-May-18 05:00N 38°00' E 012°29'2 4.7
2017-May-18 04:30N 38°01' E 012°26'3 5.6
2017-May-18 04:00N 38°02' E 012°23'3 6.2
2017-May-18 03:30N 38°04' E 012°20'  

Dump ship's entire track history